Russell Municipal Airport
KRSL : now visible

Airfield :











YOU CAN JOIN US ON...

 
LOGIN :

Register | Disclaimer

   EN    FR    IT 

 









Legend :    VFR   Marginal VFR   IFR   Intensive IFR   Very Intensive IFR
Visi :
Ceiling :
>= 8 km
>= 3000ft
5 to 8 km
1000 to 3000 ft
1500m to 5 km
500 to 1000 ft
800 to 1500m
200 to 500 ft
< 800m
< 200 ft
Symbols :   Thunderstorms  Fog  Heavy snow  Heavy precipitations  Wind > 20 kt






- Airport Elevation : 1862 ft


KRSL - Russell Municipal

CURRENT METAR :
  • 171507Z AUTO 15021KT 5SM BR OVC004 M01/M01 A3004 RMK AO2 PK WND 15027/1506 I1000 T10061011

EXPIRED METARs :
  • 171453Z AUTO 15018G28KT 3SM BR OVC005 M01/M01 A3006 RMK AO2 PK WND 15030/1441 SLP202 60001 I1000 I3004 T10061011 56029
  • 171353Z AUTO 16015KT 10SM OVC006 M01/M02 A3011 RMK AO2 PK WND 14027/1301 FZRAE13 SLP217 P0000 I1001 T10061017
  • 171319Z AUTO 15019G27KT 10SM OVC006 M01/M02 A3010 RMK AO2 PK WND 14027/1301 FZRAE13 P0000 I1001 T10111022 $
  • 171253Z AUTO 14019G26KT 6SM -FZRA BR OVC006 M01/M02 A3011 RMK AO2 PK WND 15029/1207 UPB17E20FZRAB20 SLP218 P0001 I1003 T10111022

TAF KRSL
Valid from the 17 at 14:00 until the 18 at 12:00 UTC


171345Z 1714/1812 15017G25KT P6SM VCSH OVC006
FM171600 17021G29KT P6SM OVC010
FM180100 21017G23KT P6SM BKN025 WS020/22040KT
FM180600 30019G27KT P6SM SCT130 WS020/31050KT



MET'MAP, your aeronautical weather chart ! - Copyright ORBIFLY December 2007 - Disclaimer

ORBIFLY MET'MAP TEAM :

Programming & Development : Alexandra Zaïnal
Concept & original design : Baudouin d'Aumeries
Assistance for programming : Marc-Olivier Méhu
Technical & hardware support : Manuel Goepfert

Contact : metmap@orbifly.com




SOURCES & CREDITS :

   NOAA       Earth
Advisory